sensor_id;sensor_type;location;lat;lon;timestamp;P1;durP1;ratioP1;P2;durP2;ratioP2
1376;SDS011;682;52.502;13.488;2023-12-07T00:00:34;23.85;;;18.40;;
1376;SDS011;682;52.502;13.488;2023-12-07T00:03:01;23.90;;;19.70;;
1376;SDS011;682;52.502;13.488;2023-12-07T00:05:28;22.83;;;19.50;;
1376;SDS011;682;52.502;13.488;2023-12-07T00:07:56;22.20;;;18.55;;
1376;SDS011;682;52.502;13.488;2023-12-07T00:10:23;19.88;;;16.75;;
1376;SDS011;682;52.502;13.488;2023-12-07T00:12:50;23.73;;;17.10;;
1376;SDS011;682;52.502;13.488;2023-12-07T00:15:17;21.52;;;17.58;;
1376;SDS011;682;52.502;13.488;2023-12-07T00:17:44;19.63;;;16.98;;
1376;SDS011;682;52.502;13.488;2023-12-07T00:20:11;21.92;;;18.95;;
1376;SDS011;682;52.502;13.488;2023-12-07T00:22:38;19.50;;;16.85;;
1376;SDS011;682;52.502;13.488;2023-12-07T00:25:07;19.48;;;16.90;;
1376;SDS011;682;52.502;13.488;2023-12-07T00:27:35;21.02;;;17.10;;
1376;SDS011;682;52.502;13.488;2023-12-07T00:30:03;20.13;;;16.92;;
1376;SDS011;682;52.502;13.488;2023-12-07T00:32:30;21.13;;;17.70;;
1376;SDS011;682;52.502;13.488;2023-12-07T00:34:59;21.48;;;18.13;;
1376;SDS011;682;52.502;13.488;2023-12-07T00:37:26;19.83;;;17.17;;
1376;SDS011;682;52.502;13.488;2023-12-07T00:39:53;19.92;;;17.00;;
1376;SDS011;682;52.502;13.488;2023-12-07T00:42:21;20.40;;;17.88;;
1376;SDS011;682;52.502;13.488;2023-12-07T00:44:48;24.00;;;19.40;;
1376;SDS011;682;52.502;13.488;2023-12-07T00:47:16;21.85;;;18.52;;
1376;SDS011;682;52.502;13.488;2023-12-07T00:49:43;19.70;;;17.60;;
1376;SDS011;682;52.502;13.488;2023-12-07T00:52:09;20.05;;;16.92;;
1376;SDS011;682;52.502;13.488;2023-12-07T00:54:38;22.05;;;18.30;;
1376;SDS011;682;52.502;13.488;2023-12-07T00:57:05;19.45;;;17.35;;
1376;SDS011;682;52.502;13.488;2023-12-07T00:59:34;20.58;;;16.23;;
1376;SDS011;682;52.502;13.488;2023-12-07T01:02:02;22.52;;;18.83;;
1376;SDS011;682;52.502;13.488;2023-12-07T01:04:30;20.02;;;17.92;;
1376;SDS011;682;52.502;13.488;2023-12-07T01:06:57;21.60;;;18.23;;
1376;SDS011;682;52.502;13.488;2023-12-07T01:09:24;24.25;;;19.23;;
1376;SDS011;682;52.502;13.488;2023-12-07T01:11:51;19.45;;;17.35;;
1376;SDS011;682;52.502;13.488;2023-12-07T01:14:19;23.88;;;19.02;;
1376;SDS011;682;52.502;13.488;2023-12-07T01:16:47;23.85;;;19.27;;
1376;SDS011;682;52.502;13.488;2023-12-07T01:19:14;20.05;;;17.25;;
1376;SDS011;682;52.502;13.488;2023-12-07T01:21:44;22.55;;;19.20;;
1376;SDS011;682;52.502;13.488;2023-12-07T01:24:11;23.63;;;18.67;;
1376;SDS011;682;52.502;13.488;2023-12-07T01:26:38;21.58;;;18.15;;
1376;SDS011;682;52.502;13.488;2023-12-07T01:29:05;19.30;;;16.83;;
1376;SDS011;682;52.502;13.488;2023-12-07T01:31:32;21.45;;;17.52;;
1376;SDS011;682;52.502;13.488;2023-12-07T01:34:00;23.10;;;19.23;;
1376;SDS011;682;52.502;13.488;2023-12-07T01:36:28;21.17;;;18.33;;
1376;SDS011;682;52.502;13.488;2023-12-07T01:38:55;21.50;;;17.38;;
1376;SDS011;682;52.502;13.488;2023-12-07T01:41:21;19.27;;;16.98;;
1376;SDS011;682;52.502;13.488;2023-12-07T01:43:48;22.10;;;18.40;;
1376;SDS011;682;52.502;13.488;2023-12-07T01:46:16;20.40;;;18.20;;
1376;SDS011;682;52.502;13.488;2023-12-07T01:48:43;21.13;;;18.85;;
1376;SDS011;682;52.502;13.488;2023-12-07T01:51:15;19.60;;;17.40;;
1376;SDS011;682;52.502;13.488;2023-12-07T01:53:45;21.73;;;17.10;;
1376;SDS011;682;52.502;13.488;2023-12-07T01:56:13;20.73;;;17.55;;
1376;SDS011;682;52.502;13.488;2023-12-07T01:58:41;21.33;;;16.95;;
1376;SDS011;682;52.502;13.488;2023-12-07T02:01:08;19.85;;;17.60;;
1376;SDS011;682;52.502;13.488;2023-12-07T02:03:39;19.58;;;16.92;;
1376;SDS011;682;52.502;13.488;2023-12-07T02:06:06;21.98;;;17.58;;
1376;SDS011;682;52.502;13.488;2023-12-07T02:08:39;20.23;;;16.98;;
1376;SDS011;682;52.502;13.488;2023-12-07T02:11:07;21.38;;;17.05;;
1376;SDS011;682;52.502;13.488;2023-12-07T02:13:35;20.17;;;17.70;;
1376;SDS011;682;52.502;13.488;2023-12-07T02:16:03;20.33;;;18.17;;
1376;SDS011;682;52.502;13.488;2023-12-07T02:18:35;20.13;;;16.73;;
1376;SDS011;682;52.502;13.488;2023-12-07T02:21:09;19.55;;;16.83;;
1376;SDS011;682;52.502;13.488;2023-12-07T02:23:44;23.15;;;17.50;;
1376;SDS011;682;52.502;13.488;2023-12-07T02:26:17;23.65;;;19.13;;
1376;SDS011;682;52.502;13.488;2023-12-07T02:28:47;20.33;;;18.00;;
1376;SDS011;682;52.502;13.488;2023-12-07T02:31:16;21.75;;;18.40;;
1376;SDS011;682;52.502;13.488;2023-12-07T02:33:42;20.83;;;17.10;;
1376;SDS011;682;52.502;13.488;2023-12-07T02:36:10;22.60;;;18.60;;
1376;SDS011;682;52.502;13.488;2023-12-07T02:38:39;22.48;;;17.90;;
1376;SDS011;682;52.502;13.488;2023-12-07T02:41:07;20.52;;;18.27;;
1376;SDS011;682;52.502;13.488;2023-12-07T02:43:36;23.83;;;17.70;;
1376;SDS011;682;52.502;13.488;2023-12-07T02:46:05;19.88;;;17.70;;
1376;SDS011;682;52.502;13.488;2023-12-07T02:48:33;22.70;;;18.67;;
1376;SDS011;682;52.502;13.488;2023-12-07T02:51:01;21.88;;;18.52;;
1376;SDS011;682;52.502;13.488;2023-12-07T02:53:31;21.42;;;18.73;;
1376;SDS011;682;52.502;13.488;2023-12-07T02:55:58;21.42;;;18.60;;
1376;SDS011;682;52.502;13.488;2023-12-07T02:58:26;21.15;;;17.50;;
1376;SDS011;682;52.502;13.488;2023-12-07T03:00:53;22.35;;;18.88;;
1376;SDS011;682;52.502;13.488;2023-12-07T03:03:22;22.08;;;19.35;;
1376;SDS011;682;52.502;13.488;2023-12-07T03:05:49;19.98;;;17.40;;
1376;SDS011;682;52.502;13.488;2023-12-07T03:08:16;21.83;;;18.60;;
1376;SDS011;682;52.502;13.488;2023-12-07T03:10:43;22.27;;;18.73;;
1376;SDS011;682;52.502;13.488;2023-12-07T03:13:09;24.17;;;20.27;;
1376;SDS011;682;52.502;13.488;2023-12-07T03:15:37;23.58;;;17.27;;
1376;SDS011;682;52.502;13.488;2023-12-07T03:18:04;22.77;;;18.25;;
1376;SDS011;682;52.502;13.488;2023-12-07T03:20:33;21.75;;;18.98;;
1376;SDS011;682;52.502;13.488;2023-12-07T03:23:01;21.00;;;17.40;;
1376;SDS011;682;52.502;13.488;2023-12-07T03:25:29;22.30;;;18.92;;
1376;SDS011;682;52.502;13.488;2023-12-07T03:27:56;24.95;;;18.88;;
1376;SDS011;682;52.502;13.488;2023-12-07T03:30:23;20.15;;;17.80;;
1376;SDS011;682;52.502;13.488;2023-12-07T03:32:50;22.77;;;18.90;;
1376;SDS011;682;52.502;13.488;2023-12-07T03:35:18;21.52;;;18.50;;
1376;SDS011;682;52.502;13.488;2023-12-07T03:37:46;20.08;;;17.52;;
1376;SDS011;682;52.502;13.488;2023-12-07T03:40:13;19.52;;;17.42;;
1376;SDS011;682;52.502;13.488;2023-12-07T03:42:41;24.77;;;19.42;;
1376;SDS011;682;52.502;13.488;2023-12-07T03:45:08;21.45;;;18.25;;
1376;SDS011;682;52.502;13.488;2023-12-07T03:47:36;23.83;;;20.40;;
1376;SDS011;682;52.502;13.488;2023-12-07T03:50:03;22.48;;;18.00;;
1376;SDS011;682;52.502;13.488;2023-12-07T03:52:31;23.05;;;20.25;;
1376;SDS011;682;52.502;13.488;2023-12-07T03:55:02;21.80;;;18.58;;
1376;SDS011;682;52.502;13.488;2023-12-07T03:57:30;21.80;;;19.30;;
1376;SDS011;682;52.502;13.488;2023-12-07T03:59:57;22.25;;;18.55;;
1376;SDS011;682;52.502;13.488;2023-12-07T04:02:27;21.80;;;18.80;;
1376;SDS011;682;52.502;13.488;2023-12-07T04:04:57;21.67;;;18.38;;
1376;SDS011;682;52.502;13.488;2023-12-07T04:07:27;21.92;;;18.45;;
1376;SDS011;682;52.502;13.488;2023-12-07T04:09:54;23.65;;;19.25;;
1376;SDS011;682;52.502;13.488;2023-12-07T04:12:24;44.65;;;34.92;;
1376;SDS011;682;52.502;13.488;2023-12-07T04:14:51;22.70;;;18.20;;
1376;SDS011;682;52.502;13.488;2023-12-07T04:17:17;22.83;;;19.58;;
1376;SDS011;682;52.502;13.488;2023-12-07T04:19:44;23.38;;;20.25;;
1376;SDS011;682;52.502;13.488;2023-12-07T04:22:11;24.13;;;20.02;;
1376;SDS011;682;52.502;13.488;2023-12-07T04:24:39;21.05;;;18.83;;
1376;SDS011;682;52.502;13.488;2023-12-07T04:27:06;23.15;;;19.33;;
1376;SDS011;682;52.502;13.488;2023-12-07T04:29:35;23.70;;;19.55;;
1376;SDS011;682;52.502;13.488;2023-12-07T04:32:02;22.50;;;19.00;;
1376;SDS011;682;52.502;13.488;2023-12-07T04:34:29;25.70;;;19.65;;
1376;SDS011;682;52.502;13.488;2023-12-07T04:36:57;22.60;;;19.27;;
1376;SDS011;682;52.502;13.488;2023-12-07T04:39:25;28.08;;;20.73;;
1376;SDS011;682;52.502;13.488;2023-12-07T04:41:52;26.83;;;21.05;;
1376;SDS011;682;52.502;13.488;2023-12-07T04:44:19;26.67;;;21.88;;
1376;SDS011;682;52.502;13.488;2023-12-07T04:46:50;30.08;;;24.48;;
1376;SDS011;682;52.502;13.488;2023-12-07T04:49:17;24.30;;;21.15;;
1376;SDS011;682;52.502;13.488;2023-12-07T04:51:44;27.65;;;21.83;;
1376;SDS011;682;52.502;13.488;2023-12-07T04:54:11;31.27;;;23.77;;
1376;SDS011;682;52.502;13.488;2023-12-07T04:56:40;26.92;;;22.08;;
1376;SDS011;682;52.502;13.488;2023-12-07T04:59:07;30.77;;;23.65;;
1376;SDS011;682;52.502;13.488;2023-12-07T05:01:35;32.15;;;23.88;;
1376;SDS011;682;52.502;13.488;2023-12-07T05:04:04;29.40;;;22.85;;
1376;SDS011;682;52.502;13.488;2023-12-07T05:06:32;29.85;;;22.27;;
1376;SDS011;682;52.502;13.488;2023-12-07T05:08:59;31.67;;;23.13;;
1376;SDS011;682;52.502;13.488;2023-12-07T05:11:26;34.92;;;26.33;;
1376;SDS011;682;52.502;13.488;2023-12-07T05:13:56;29.83;;;21.73;;
1376;SDS011;682;52.502;13.488;2023-12-07T05:16:23;29.15;;;21.75;;
1376;SDS011;682;52.502;13.488;2023-12-07T05:18:50;27.48;;;20.75;;
1376;SDS011;682;52.502;13.488;2023-12-07T05:21:22;26.73;;;21.77;;
1376;SDS011;682;52.502;13.488;2023-12-07T05:23:49;30.70;;;21.05;;
1376;SDS011;682;52.502;13.488;2023-12-07T05:26:16;33.45;;;24.52;;
1376;SDS011;682;52.502;13.488;2023-12-07T05:28:44;30.33;;;21.65;;
1376;SDS011;682;52.502;13.488;2023-12-07T05:31:15;32.80;;;22.35;;
1376;SDS011;682;52.502;13.488;2023-12-07T05:33:44;28.55;;;22.60;;
1376;SDS011;682;52.502;13.488;2023-12-07T05:36:11;27.67;;;22.45;;
1376;SDS011;682;52.502;13.488;2023-12-07T05:38:39;29.85;;;20.63;;
1376;SDS011;682;52.502;13.488;2023-12-07T05:41:06;27.83;;;20.25;;
1376;SDS011;682;52.502;13.488;2023-12-07T05:43:34;27.35;;;20.42;;
1376;SDS011;682;52.502;13.488;2023-12-07T05:46:01;27.65;;;20.70;;
1376;SDS011;682;52.502;13.488;2023-12-07T05:48:28;28.58;;;21.75;;
1376;SDS011;682;52.502;13.488;2023-12-07T05:50:55;32.58;;;21.73;;
1376;SDS011;682;52.502;13.488;2023-12-07T05:53:23;31.50;;;25.20;;
1376;SDS011;682;52.502;13.488;2023-12-07T05:55:51;24.83;;;19.55;;
1376;SDS011;682;52.502;13.488;2023-12-07T05:58:21;30.20;;;21.83;;
1376;SDS011;682;52.502;13.488;2023-12-07T06:00:48;29.05;;;21.80;;
1376;SDS011;682;52.502;13.488;2023-12-07T06:03:18;29.52;;;21.50;;
1376;SDS011;682;52.502;13.488;2023-12-07T06:05:45;28.38;;;21.20;;
1376;SDS011;682;52.502;13.488;2023-12-07T06:08:12;27.80;;;21.17;;
1376;SDS011;682;52.502;13.488;2023-12-07T06:10:39;26.55;;;20.15;;
1376;SDS011;682;52.502;13.488;2023-12-07T06:13:08;31.60;;;23.75;;
1376;SDS011;682;52.502;13.488;2023-12-07T06:15:35;30.33;;;23.02;;
1376;SDS011;682;52.502;13.488;2023-12-07T06:18:03;27.70;;;21.42;;
1376;SDS011;682;52.502;13.488;2023-12-07T06:20:29;25.52;;;20.63;;
1376;SDS011;682;52.502;13.488;2023-12-07T06:22:57;30.63;;;22.63;;
1376;SDS011;682;52.502;13.488;2023-12-07T06:25:27;32.17;;;23.45;;
1376;SDS011;682;52.502;13.488;2023-12-07T06:27:54;29.25;;;23.20;;
1376;SDS011;682;52.502;13.488;2023-12-07T06:30:22;32.25;;;24.20;;
1376;SDS011;682;52.502;13.488;2023-12-07T06:32:50;28.85;;;23.13;;
1376;SDS011;682;52.502;13.488;2023-12-07T06:35:17;28.88;;;20.90;;
1376;SDS011;682;52.502;13.488;2023-12-07T06:37:44;32.83;;;24.73;;
1376;SDS011;682;52.502;13.488;2023-12-07T06:40:12;33.25;;;21.85;;
1376;SDS011;682;52.502;13.488;2023-12-07T06:42:40;32.20;;;23.13;;
1376;SDS011;682;52.502;13.488;2023-12-07T06:45:08;27.92;;;21.15;;
1376;SDS011;682;52.502;13.488;2023-12-07T06:47:40;30.08;;;21.52;;
1376;SDS011;682;52.502;13.488;2023-12-07T06:50:09;30.30;;;21.45;;
1376;SDS011;682;52.502;13.488;2023-12-07T06:52:37;29.70;;;21.83;;
1376;SDS011;682;52.502;13.488;2023-12-07T06:55:05;38.20;;;28.23;;
1376;SDS011;682;52.502;13.488;2023-12-07T06:57:35;31.70;;;23.05;;
1376;SDS011;682;52.502;13.488;2023-12-07T07:00:04;34.95;;;23.17;;
1376;SDS011;682;52.502;13.488;2023-12-07T07:02:36;29.95;;;22.65;;
1376;SDS011;682;52.502;13.488;2023-12-07T07:05:06;29.42;;;22.00;;
1376;SDS011;682;52.502;13.488;2023-12-07T07:07:36;29.00;;;21.95;;
1376;SDS011;682;52.502;13.488;2023-12-07T07:10:03;30.17;;;21.70;;
1376;SDS011;682;52.502;13.488;2023-12-07T07:12:31;26.98;;;20.77;;
1376;SDS011;682;52.502;13.488;2023-12-07T07:14:59;27.75;;;20.08;;
1376;SDS011;682;52.502;13.488;2023-12-07T07:17:27;26.33;;;20.60;;
1376;SDS011;682;52.502;13.488;2023-12-07T07:19:55;30.70;;;23.10;;
1376;SDS011;682;52.502;13.488;2023-12-07T07:22:23;29.48;;;22.13;;
1376;SDS011;682;52.502;13.488;2023-12-07T07:24:50;30.00;;;21.63;;
1376;SDS011;682;52.502;13.488;2023-12-07T07:27:17;27.48;;;20.55;;
1376;SDS011;682;52.502;13.488;2023-12-07T07:29:47;28.70;;;18.58;;
1376;SDS011;682;52.502;13.488;2023-12-07T07:32:14;27.30;;;18.25;;
1376;SDS011;682;52.502;13.488;2023-12-07T07:34:44;28.05;;;19.70;;
1376;SDS011;682;52.502;13.488;2023-12-07T07:37:10;28.25;;;19.10;;
1376;SDS011;682;52.502;13.488;2023-12-07T07:39:39;28.70;;;20.63;;
1376;SDS011;682;52.502;13.488;2023-12-07T07:42:06;29.23;;;19.23;;
1376;SDS011;682;52.502;13.488;2023-12-07T07:44:34;26.63;;;19.35;;
1376;SDS011;682;52.502;13.488;2023-12-07T07:47:04;27.23;;;17.77;;
1376;SDS011;682;52.502;13.488;2023-12-07T07:49:31;29.17;;;20.95;;
1376;SDS011;682;52.502;13.488;2023-12-07T07:51:58;32.55;;;23.48;;
1376;SDS011;682;52.502;13.488;2023-12-07T07:54:25;30.20;;;20.95;;
1376;SDS011;682;52.502;13.488;2023-12-07T07:56:54;31.00;;;19.73;;
1376;SDS011;682;52.502;13.488;2023-12-07T07:59:20;29.05;;;20.90;;
1376;SDS011;682;52.502;13.488;2023-12-07T08:01:48;32.15;;;20.52;;
1376;SDS011;682;52.502;13.488;2023-12-07T08:04:15;27.35;;;20.33;;
1376;SDS011;682;52.502;13.488;2023-12-07T08:06:43;28.38;;;20.23;;
1376;SDS011;682;52.502;13.488;2023-12-07T08:09:10;28.95;;;19.27;;
1376;SDS011;682;52.502;13.488;2023-12-07T08:11:39;28.48;;;18.90;;
1376;SDS011;682;52.502;13.488;2023-12-07T08:14:07;28.90;;;19.65;;
1376;SDS011;682;52.502;13.488;2023-12-07T08:16:34;32.88;;;21.08;;
1376;SDS011;682;52.502;13.488;2023-12-07T08:19:06;31.90;;;20.40;;
1376;SDS011;682;52.502;13.488;2023-12-07T08:21:33;28.60;;;18.15;;
1376;SDS011;682;52.502;13.488;2023-12-07T08:24:01;24.83;;;19.23;;
1376;SDS011;682;52.502;13.488;2023-12-07T08:26:28;25.98;;;19.70;;
1376;SDS011;682;52.502;13.488;2023-12-07T08:28:59;27.00;;;20.35;;
1376;SDS011;682;52.502;13.488;2023-12-07T08:31:27;26.25;;;20.80;;
1376;SDS011;682;52.502;13.488;2023-12-07T08:33:55;28.55;;;18.70;;
1376;SDS011;682;52.502;13.488;2023-12-07T08:36:21;29.17;;;21.58;;
1376;SDS011;682;52.502;13.488;2023-12-07T08:38:49;29.30;;;21.85;;
1376;SDS011;682;52.502;13.488;2023-12-07T08:41:17;31.20;;;20.85;;
1376;SDS011;682;52.502;13.488;2023-12-07T08:43:46;29.45;;;23.40;;
1376;SDS011;682;52.502;13.488;2023-12-07T08:46:13;28.05;;;20.10;;
1376;SDS011;682;52.502;13.488;2023-12-07T08:48:42;28.95;;;20.63;;
1376;SDS011;682;52.502;13.488;2023-12-07T08:51:09;30.38;;;20.58;;
1376;SDS011;682;52.502;13.488;2023-12-07T08:53:38;28.55;;;21.40;;
1376;SDS011;682;52.502;13.488;2023-12-07T08:56:06;33.40;;;22.48;;
1376;SDS011;682;52.502;13.488;2023-12-07T08:58:34;29.00;;;20.42;;
1376;SDS011;682;52.502;13.488;2023-12-07T09:01:01;32.50;;;22.50;;
1376;SDS011;682;52.502;13.488;2023-12-07T09:03:28;31.90;;;22.77;;
1376;SDS011;682;52.502;13.488;2023-12-07T09:05:59;29.65;;;21.85;;
1376;SDS011;682;52.502;13.488;2023-12-07T09:08:27;29.02;;;21.48;;
1376;SDS011;682;52.502;13.488;2023-12-07T09:10:55;30.98;;;21.48;;
1376;SDS011;682;52.502;13.488;2023-12-07T09:13:24;29.33;;;21.30;;
1376;SDS011;682;52.502;13.488;2023-12-07T09:15:51;29.42;;;23.10;;
1376;SDS011;682;52.502;13.488;2023-12-07T09:18:19;29.85;;;20.45;;
1376;SDS011;682;52.502;13.488;2023-12-07T09:20:47;28.08;;;19.70;;
1376;SDS011;682;52.502;13.488;2023-12-07T09:23:16;26.70;;;20.33;;
1376;SDS011;682;52.502;13.488;2023-12-07T09:25:44;24.90;;;18.83;;
1376;SDS011;682;52.502;13.488;2023-12-07T09:28:12;30.58;;;21.33;;
1376;SDS011;682;52.502;13.488;2023-12-07T09:30:39;24.95;;;18.30;;
1376;SDS011;682;52.502;13.488;2023-12-07T09:33:06;26.33;;;19.70;;
1376;SDS011;682;52.502;13.488;2023-12-07T09:35:34;28.45;;;19.00;;
1376;SDS011;682;52.502;13.488;2023-12-07T09:38:01;25.30;;;19.02;;
1376;SDS011;682;52.502;13.488;2023-12-07T09:40:30;24.85;;;19.20;;
1376;SDS011;682;52.502;13.488;2023-12-07T09:42:57;26.50;;;20.00;;
1376;SDS011;682;52.502;13.488;2023-12-07T09:45:24;25.63;;;20.25;;
1376;SDS011;682;52.502;13.488;2023-12-07T09:47:53;24.17;;;20.05;;
1376;SDS011;682;52.502;13.488;2023-12-07T09:50:21;25.23;;;19.20;;
1376;SDS011;682;52.502;13.488;2023-12-07T09:52:50;25.25;;;19.58;;
1376;SDS011;682;52.502;13.488;2023-12-07T09:55:19;27.02;;;19.75;;
1376;SDS011;682;52.502;13.488;2023-12-07T09:57:49;27.77;;;19.00;;
1376;SDS011;682;52.502;13.488;2023-12-07T10:00:16;27.08;;;20.05;;
1376;SDS011;682;52.502;13.488;2023-12-07T10:02:44;32.25;;;21.38;;
1376;SDS011;682;52.502;13.488;2023-12-07T10:05:13;30.00;;;21.30;;
1376;SDS011;682;52.502;13.488;2023-12-07T10:07:43;24.85;;;19.50;;
1376;SDS011;682;52.502;13.488;2023-12-07T10:10:12;23.67;;;17.60;;
1376;SDS011;682;52.502;13.488;2023-12-07T10:12:44;22.95;;;18.25;;
1376;SDS011;682;52.502;13.488;2023-12-07T10:15:15;24.77;;;19.35;;
1376;SDS011;682;52.502;13.488;2023-12-07T10:17:44;21.58;;;16.95;;
1376;SDS011;682;52.502;13.488;2023-12-07T10:20:13;22.70;;;18.40;;
1376;SDS011;682;52.502;13.488;2023-12-07T10:22:42;21.35;;;16.58;;
1376;SDS011;682;52.502;13.488;2023-12-07T10:25:10;19.77;;;16.02;;
1376;SDS011;682;52.502;13.488;2023-12-07T10:27:39;21.80;;;18.02;;
1376;SDS011;682;52.502;13.488;2023-12-07T10:30:10;20.75;;;15.88;;
1376;SDS011;682;52.502;13.488;2023-12-07T10:32:39;23.35;;;18.55;;
1376;SDS011;682;52.502;13.488;2023-12-07T10:35:07;24.35;;;17.13;;
1376;SDS011;682;52.502;13.488;2023-12-07T10:37:35;25.30;;;19.55;;
1376;SDS011;682;52.502;13.488;2023-12-07T10:40:04;23.88;;;17.95;;
1376;SDS011;682;52.502;13.488;2023-12-07T10:42:33;22.05;;;16.65;;
1376;SDS011;682;52.502;13.488;2023-12-07T10:45:04;26.50;;;17.48;;
1376;SDS011;682;52.502;13.488;2023-12-07T10:47:33;23.45;;;17.00;;
1376;SDS011;682;52.502;13.488;2023-12-07T10:50:04;32.22;;;24.58;;
1376;SDS011;682;52.502;13.488;2023-12-07T10:52:37;22.30;;;17.55;;
1376;SDS011;682;52.502;13.488;2023-12-07T10:55:14;25.25;;;18.50;;
1376;SDS011;682;52.502;13.488;2023-12-07T10:57:44;25.00;;;18.85;;
1376;SDS011;682;52.502;13.488;2023-12-07T11:00:13;23.35;;;18.30;;
1376;SDS011;682;52.502;13.488;2023-12-07T11:02:44;28.10;;;20.15;;
1376;SDS011;682;52.502;13.488;2023-12-07T11:05:13;26.88;;;19.75;;
1376;SDS011;682;52.502;13.488;2023-12-07T11:07:44;30.10;;;22.05;;
1376;SDS011;682;52.502;13.488;2023-12-07T11:10:20;26.02;;;19.70;;
1376;SDS011;682;52.502;13.488;2023-12-07T11:12:55;28.92;;;19.08;;
1376;SDS011;682;52.502;13.488;2023-12-07T11:15:27;30.23;;;22.38;;
1376;SDS011;682;52.502;13.488;2023-12-07T11:17:55;26.77;;;20.40;;
1376;SDS011;682;52.502;13.488;2023-12-07T11:20:34;29.63;;;21.63;;
1376;SDS011;682;52.502;13.488;2023-12-07T11:23:09;25.70;;;19.90;;
1376;SDS011;682;52.502;13.488;2023-12-07T11:25:36;26.27;;;19.58;;
1376;SDS011;682;52.502;13.488;2023-12-07T11:28:05;29.40;;;21.25;;
1376;SDS011;682;52.502;13.488;2023-12-07T11:30:33;24.50;;;18.75;;
1376;SDS011;682;52.502;13.488;2023-12-07T11:33:03;27.27;;;19.92;;
1376;SDS011;682;52.502;13.488;2023-12-07T11:35:37;24.02;;;19.02;;
1376;SDS011;682;52.502;13.488;2023-12-07T11:38:32;25.58;;;19.27;;
1376;SDS011;682;52.502;13.488;2023-12-07T11:40:59;25.05;;;19.90;;
1376;SDS011;682;52.502;13.488;2023-12-07T11:43:36;25.42;;;20.13;;
1376;SDS011;682;52.502;13.488;2023-12-07T11:46:08;23.50;;;18.23;;
1376;SDS011;682;52.502;13.488;2023-12-07T11:48:36;26.27;;;19.48;;
1376;SDS011;682;52.502;13.488;2023-12-07T11:51:13;31.33;;;20.90;;
1376;SDS011;682;52.502;13.488;2023-12-07T11:53:40;24.27;;;19.60;;
1376;SDS011;682;52.502;13.488;2023-12-07T11:56:07;25.58;;;20.65;;
1376;SDS011;682;52.502;13.488;2023-12-07T11:58:36;34.22;;;25.02;;
1376;SDS011;682;52.502;13.488;2023-12-07T12:01:04;24.40;;;19.85;;
1376;SDS011;682;52.502;13.488;2023-12-07T12:03:32;26.42;;;20.05;;
1376;SDS011;682;52.502;13.488;2023-12-07T12:06:04;27.58;;;19.60;;
1376;SDS011;682;52.502;13.488;2023-12-07T12:08:36;28.52;;;21.50;;
1376;SDS011;682;52.502;13.488;2023-12-07T12:11:06;26.33;;;19.13;;
1376;SDS011;682;52.502;13.488;2023-12-07T12:13:33;23.75;;;19.88;;
1376;SDS011;682;52.502;13.488;2023-12-07T12:16:02;25.08;;;20.75;;
1376;SDS011;682;52.502;13.488;2023-12-07T12:18:29;27.15;;;19.40;;
1376;SDS011;682;52.502;13.488;2023-12-07T12:20:58;25.50;;;19.58;;
1376;SDS011;682;52.502;13.488;2023-12-07T12:23:25;26.33;;;21.33;;
1376;SDS011;682;52.502;13.488;2023-12-07T12:25:56;26.05;;;20.40;;
1376;SDS011;682;52.502;13.488;2023-12-07T12:28:24;23.42;;;18.45;;
1376;SDS011;682;52.502;13.488;2023-12-07T12:30:57;27.30;;;19.83;;
1376;SDS011;682;52.502;13.488;2023-12-07T12:33:26;29.23;;;21.52;;
1376;SDS011;682;52.502;13.488;2023-12-07T12:36:00;27.10;;;21.60;;
1376;SDS011;682;52.502;13.488;2023-12-07T12:38:29;27.10;;;21.52;;
1376;SDS011;682;52.502;13.488;2023-12-07T12:40:57;30.45;;;21.77;;
1376;SDS011;682;52.502;13.488;2023-12-07T12:43:26;28.83;;;21.00;;
1376;SDS011;682;52.502;13.488;2023-12-07T12:45:56;27.50;;;22.52;;
1376;SDS011;682;52.502;13.488;2023-12-07T12:48:24;32.05;;;21.67;;
1376;SDS011;682;52.502;13.488;2023-12-07T12:50:51;27.42;;;20.05;;
1376;SDS011;682;52.502;13.488;2023-12-07T12:53:18;25.88;;;19.35;;
1376;SDS011;682;52.502;13.488;2023-12-07T12:55:47;33.50;;;22.95;;
1376;SDS011;682;52.502;13.488;2023-12-07T12:58:15;28.42;;;23.10;;
1376;SDS011;682;52.502;13.488;2023-12-07T13:00:45;30.05;;;22.00;;
1376;SDS011;682;52.502;13.488;2023-12-07T13:03:13;28.60;;;22.27;;
1376;SDS011;682;52.502;13.488;2023-12-07T13:05:40;33.70;;;25.13;;
1376;SDS011;682;52.502;13.488;2023-12-07T13:08:07;28.55;;;22.50;;
1376;SDS011;682;52.502;13.488;2023-12-07T13:10:34;34.80;;;26.20;;
1376;SDS011;682;52.502;13.488;2023-12-07T13:13:03;37.97;;;25.80;;
1376;SDS011;682;52.502;13.488;2023-12-07T13:15:33;35.78;;;26.25;;
1376;SDS011;682;52.502;13.488;2023-12-07T13:18:00;30.52;;;24.17;;
1376;SDS011;682;52.502;13.488;2023-12-07T13:20:32;33.30;;;24.55;;
1376;SDS011;682;52.502;13.488;2023-12-07T13:23:01;35.92;;;27.27;;
1376;SDS011;682;52.502;13.488;2023-12-07T13:25:28;33.63;;;25.42;;
1376;SDS011;682;52.502;13.488;2023-12-07T13:27:57;34.00;;;25.92;;
1376;SDS011;682;52.502;13.488;2023-12-07T13:30:25;33.85;;;26.90;;
1376;SDS011;682;52.502;13.488;2023-12-07T13:33:08;39.72;;;28.20;;
1376;SDS011;682;52.502;13.488;2023-12-07T13:35:36;39.47;;;28.65;;
1376;SDS011;682;52.502;13.488;2023-12-07T13:38:04;32.13;;;26.60;;
1376;SDS011;682;52.502;13.488;2023-12-07T13:40:31;38.83;;;27.73;;
1376;SDS011;682;52.502;13.488;2023-12-07T13:43:00;37.45;;;26.83;;
1376;SDS011;682;52.502;13.488;2023-12-07T13:45:28;36.00;;;27.48;;
1376;SDS011;682;52.502;13.488;2023-12-07T13:47:55;42.47;;;28.67;;
1376;SDS011;682;52.502;13.488;2023-12-07T13:50:25;39.92;;;29.55;;
1376;SDS011;682;52.502;13.488;2023-12-07T13:52:52;38.83;;;29.10;;
1376;SDS011;682;52.502;13.488;2023-12-07T13:55:19;40.63;;;30.83;;
1376;SDS011;682;52.502;13.488;2023-12-07T13:57:49;43.53;;;30.92;;
1376;SDS011;682;52.502;13.488;2023-12-07T14:00:18;39.80;;;29.42;;
1376;SDS011;682;52.502;13.488;2023-12-07T14:02:45;40.03;;;28.92;;
1376;SDS011;682;52.502;13.488;2023-12-07T14:05:12;41.15;;;29.92;;
1376;SDS011;682;52.502;13.488;2023-12-07T14:07:41;46.92;;;32.72;;
1376;SDS011;682;52.502;13.488;2023-12-07T14:10:08;42.80;;;30.95;;
1376;SDS011;682;52.502;13.488;2023-12-07T14:12:36;51.15;;;41.90;;
1376;SDS011;682;52.502;13.488;2023-12-07T14:15:04;43.35;;;31.05;;
1376;SDS011;682;52.502;13.488;2023-12-07T14:17:33;47.35;;;32.45;;
1376;SDS011;682;52.502;13.488;2023-12-07T14:20:04;50.35;;;33.55;;
1376;SDS011;682;52.502;13.488;2023-12-07T14:22:33;50.40;;;34.97;;
1376;SDS011;682;52.502;13.488;2023-12-07T14:25:04;44.58;;;31.77;;
1376;SDS011;682;52.502;13.488;2023-12-07T14:27:36;49.03;;;35.00;;
1376;SDS011;682;52.502;13.488;2023-12-07T14:30:05;46.42;;;34.03;;
1376;SDS011;682;52.502;13.488;2023-12-07T14:32:35;42.70;;;32.25;;
1376;SDS011;682;52.502;13.488;2023-12-07T14:35:04;44.88;;;34.38;;
1376;SDS011;682;52.502;13.488;2023-12-07T14:37:32;43.40;;;30.38;;
1376;SDS011;682;52.502;13.488;2023-12-07T14:40:01;44.67;;;30.60;;
1376;SDS011;682;52.502;13.488;2023-12-07T14:42:31;39.05;;;29.20;;
1376;SDS011;682;52.502;13.488;2023-12-07T14:44:58;48.80;;;31.77;;
1376;SDS011;682;52.502;13.488;2023-12-07T14:47:25;49.67;;;32.85;;
1376;SDS011;682;52.502;13.488;2023-12-07T14:49:52;49.53;;;33.55;;
1376;SDS011;682;52.502;13.488;2023-12-07T14:52:19;50.30;;;34.70;;
1376;SDS011;682;52.502;13.488;2023-12-07T14:54:49;49.20;;;33.00;;